sensor_id;sensor_type;location;lat;lon;timestamp;P1;durP1;ratioP1;P2;durP2;ratioP2
1024;SDS011;501;48.214;11.350;2023-04-25T00:00:30;2.10;;;1.90;;
1024;SDS011;501;48.214;11.350;2023-04-25T00:02:55;3.00;;;2.10;;
1024;SDS011;501;48.214;11.350;2023-04-25T00:05:21;2.77;;;2.57;;
1024;SDS011;501;48.214;11.350;2023-04-25T00:07:49;2.50;;;1.97;;
1024;SDS011;501;48.214;11.350;2023-04-25T00:10:15;2.00;;;1.80;;
1024;SDS011;501;48.214;11.350;2023-04-25T00:12:41;3.00;;;2.07;;
1024;SDS011;501;48.214;11.350;2023-04-25T00:15:07;2.40;;;2.20;;
1024;SDS011;501;48.214;11.350;2023-04-25T00:17:34;2.40;;;2.07;;
1024;SDS011;501;48.214;11.350;2023-04-25T00:20:00;2.70;;;2.50;;
1024;SDS011;501;48.214;11.350;2023-04-25T00:22:30;2.20;;;2.10;;
1024;SDS011;501;48.214;11.350;2023-04-25T00:24:56;3.53;;;2.57;;
1024;SDS011;501;48.214;11.350;2023-04-25T00:27:25;3.63;;;2.10;;
1024;SDS011;501;48.214;11.350;2023-04-25T00:29:51;2.10;;;1.90;;
1024;SDS011;501;48.214;11.350;2023-04-25T00:32:17;2.00;;;1.90;;
1024;SDS011;501;48.214;11.350;2023-04-25T00:34:43;2.00;;;1.80;;
1024;SDS011;501;48.214;11.350;2023-04-25T00:37:08;3.43;;;2.20;;
1024;SDS011;501;48.214;11.350;2023-04-25T00:39:35;3.03;;;2.40;;
1024;SDS011;501;48.214;11.350;2023-04-25T00:42:01;2.87;;;2.07;;
1024;SDS011;501;48.214;11.350;2023-04-25T00:44:29;2.53;;;2.33;;
1024;SDS011;501;48.214;11.350;2023-04-25T00:46:57;3.07;;;2.20;;
1024;SDS011;501;48.214;11.350;2023-04-25T00:49:23;3.60;;;2.00;;
1024;SDS011;501;48.214;11.350;2023-04-25T00:51:48;2.30;;;2.10;;
1024;SDS011;501;48.214;11.350;2023-04-25T00:54:15;2.70;;;2.17;;
1024;SDS011;501;48.214;11.350;2023-04-25T00:56:41;3.80;;;2.33;;
1024;SDS011;501;48.214;11.350;2023-04-25T00:59:08;2.17;;;1.97;;
1024;SDS011;501;48.214;11.350;2023-04-25T01:01:35;1.87;;;1.73;;
1024;SDS011;501;48.214;11.350;2023-04-25T01:04:01;2.67;;;2.30;;
1024;SDS011;501;48.214;11.350;2023-04-25T01:06:27;3.10;;;2.77;;
1024;SDS011;501;48.214;11.350;2023-04-25T01:08:53;3.30;;;2.60;;
1024;SDS011;501;48.214;11.350;2023-04-25T01:11:19;2.60;;;2.40;;
1024;SDS011;501;48.214;11.350;2023-04-25T01:13:45;2.53;;;2.33;;
1024;SDS011;501;48.214;11.350;2023-04-25T01:16:11;2.97;;;1.80;;
1024;SDS011;501;48.214;11.350;2023-04-25T01:18:38;2.67;;;2.23;;
1024;SDS011;501;48.214;11.350;2023-04-25T01:21:09;3.80;;;2.40;;
1024;SDS011;501;48.214;11.350;2023-04-25T01:23:36;2.40;;;2.20;;
1024;SDS011;501;48.214;11.350;2023-04-25T01:26:03;2.60;;;2.40;;
1024;SDS011;501;48.214;11.350;2023-04-25T01:28:30;4.43;;;2.77;;
1024;SDS011;501;48.214;11.350;2023-04-25T01:30:56;2.10;;;1.90;;
1024;SDS011;501;48.214;11.350;2023-04-25T01:33:22;2.80;;;2.20;;
1024;SDS011;501;48.214;11.350;2023-04-25T01:35:48;2.60;;;2.40;;
1024;SDS011;501;48.214;11.350;2023-04-25T01:38:14;2.40;;;2.20;;
1024;SDS011;501;48.214;11.350;2023-04-25T01:40:40;2.53;;;2.33;;
1024;SDS011;501;48.214;11.350;2023-04-25T01:43:07;1.83;;;1.73;;
1024;SDS011;501;48.214;11.350;2023-04-25T01:45:36;3.40;;;2.13;;
1024;SDS011;501;48.214;11.350;2023-04-25T01:48:05;2.40;;;2.20;;
1024;SDS011;501;48.214;11.350;2023-04-25T01:50:31;2.47;;;2.27;;
1024;SDS011;501;48.214;11.350;2023-04-25T01:52:57;2.40;;;2.20;;
1024;SDS011;501;48.214;11.350;2023-04-25T01:55:23;2.47;;;1.93;;
1024;SDS011;501;48.214;11.350;2023-04-25T01:57:49;2.30;;;2.10;;
1024;SDS011;501;48.214;11.350;2023-04-25T02:00:14;2.17;;;2.03;;
1024;SDS011;501;48.214;11.350;2023-04-25T02:02:40;2.43;;;2.23;;
1024;SDS011;501;48.214;11.350;2023-04-25T02:05:06;2.40;;;2.20;;
1024;SDS011;501;48.214;11.350;2023-04-25T02:07:32;3.47;;;2.67;;
1024;SDS011;501;48.214;11.350;2023-04-25T02:09:58;2.80;;;2.50;;
1024;SDS011;501;48.214;11.350;2023-04-25T02:12:24;2.70;;;2.50;;
1024;SDS011;501;48.214;11.350;2023-04-25T02:14:51;2.17;;;2.07;;
1024;SDS011;501;48.214;11.350;2023-04-25T02:17:17;4.10;;;2.50;;
1024;SDS011;501;48.214;11.350;2023-04-25T02:19:43;3.47;;;1.90;;
1024;SDS011;501;48.214;11.350;2023-04-25T02:22:09;5.50;;;3.03;;
1024;SDS011;501;48.214;11.350;2023-04-25T02:24:35;3.27;;;2.97;;
1024;SDS011;501;48.214;11.350;2023-04-25T02:27:01;2.93;;;2.53;;
1024;SDS011;501;48.214;11.350;2023-04-25T02:29:27;3.37;;;2.50;;
1024;SDS011;501;48.214;11.350;2023-04-25T02:31:54;2.70;;;2.50;;
1024;SDS011;501;48.214;11.350;2023-04-25T02:34:20;6.50;;;2.93;;
1024;SDS011;501;48.214;11.350;2023-04-25T02:36:46;2.70;;;2.50;;
1024;SDS011;501;48.214;11.350;2023-04-25T02:39:13;2.20;;;2.00;;
1024;SDS011;501;48.214;11.350;2023-04-25T02:41:39;3.57;;;2.53;;
1024;SDS011;501;48.214;11.350;2023-04-25T02:44:05;3.00;;;2.33;;
1024;SDS011;501;48.214;11.350;2023-04-25T02:46:30;2.40;;;2.20;;
1024;SDS011;501;48.214;11.350;2023-04-25T02:48:56;2.57;;;2.37;;
1024;SDS011;501;48.214;11.350;2023-04-25T02:51:22;3.10;;;2.40;;
1024;SDS011;501;48.214;11.350;2023-04-25T02:53:48;2.50;;;2.30;;
1024;SDS011;501;48.214;11.350;2023-04-25T02:56:14;7.17;;;2.50;;
1024;SDS011;501;48.214;11.350;2023-04-25T02:58:39;2.83;;;2.23;;
1024;SDS011;501;48.214;11.350;2023-04-25T03:01:05;4.00;;;2.43;;
1024;SDS011;501;48.214;11.350;2023-04-25T03:03:31;4.77;;;2.97;;
1024;SDS011;501;48.214;11.350;2023-04-25T03:05:57;3.10;;;2.80;;
1024;SDS011;501;48.214;11.350;2023-04-25T03:08:22;3.20;;;2.90;;
1024;SDS011;501;48.214;11.350;2023-04-25T03:10:48;5.13;;;3.23;;
1024;SDS011;501;48.214;11.350;2023-04-25T03:13:16;3.40;;;3.10;;
1024;SDS011;501;48.214;11.350;2023-04-25T03:15:41;2.90;;;2.40;;
1024;SDS011;501;48.214;11.350;2023-04-25T03:18:07;3.83;;;3.37;;
1024;SDS011;501;48.214;11.350;2023-04-25T03:20:32;4.43;;;2.67;;
1024;SDS011;501;48.214;11.350;2023-04-25T03:22:58;2.57;;;2.30;;
1024;SDS011;501;48.214;11.350;2023-04-25T03:25:24;2.53;;;2.33;;
1024;SDS011;501;48.214;11.350;2023-04-25T03:27:49;3.00;;;2.20;;
1024;SDS011;501;48.214;11.350;2023-04-25T03:30:15;3.47;;;2.20;;
1024;SDS011;501;48.214;11.350;2023-04-25T03:32:40;2.70;;;2.00;;
1024;SDS011;501;48.214;11.350;2023-04-25T03:35:06;3.17;;;2.10;;
1024;SDS011;501;48.214;11.350;2023-04-25T03:37:32;3.83;;;2.57;;
1024;SDS011;501;48.214;11.350;2023-04-25T03:39:57;2.17;;;1.97;;
1024;SDS011;501;48.214;11.350;2023-04-25T03:42:23;2.93;;;2.40;;
1024;SDS011;501;48.214;11.350;2023-04-25T03:44:49;2.03;;;1.63;;
1024;SDS011;501;48.214;11.350;2023-04-25T03:47:16;2.80;;;2.10;;
1024;SDS011;501;48.214;11.350;2023-04-25T03:49:41;2.73;;;1.70;;
1024;SDS011;501;48.214;11.350;2023-04-25T03:52:07;2.23;;;2.03;;
1024;SDS011;501;48.214;11.350;2023-04-25T03:54:33;3.73;;;2.20;;
1024;SDS011;501;48.214;11.350;2023-04-25T03:56:58;2.00;;;1.83;;
1024;SDS011;501;48.214;11.350;2023-04-25T03:59:24;2.40;;;1.50;;
1024;SDS011;501;48.214;11.350;2023-04-25T04:01:51;2.90;;;1.50;;
1024;SDS011;501;48.214;11.350;2023-04-25T04:04:17;2.20;;;2.00;;
1024;SDS011;501;48.214;11.350;2023-04-25T04:06:43;2.07;;;1.87;;
1024;SDS011;501;48.214;11.350;2023-04-25T04:09:08;2.80;;;2.60;;
1024;SDS011;501;48.214;11.350;2023-04-25T04:11:36;1.40;;;1.30;;
1024;SDS011;501;48.214;11.350;2023-04-25T04:14:03;3.03;;;1.83;;
1024;SDS011;501;48.214;11.350;2023-04-25T04:16:31;1.87;;;1.50;;
1024;SDS011;501;48.214;11.350;2023-04-25T04:18:57;3.63;;;2.60;;
1024;SDS011;501;48.214;11.350;2023-04-25T04:21:23;2.03;;;1.80;;
1024;SDS011;501;48.214;11.350;2023-04-25T04:23:48;2.10;;;1.80;;
1024;SDS011;501;48.214;11.350;2023-04-25T04:26:14;2.00;;;1.70;;
1024;SDS011;501;48.214;11.350;2023-04-25T04:28:41;2.20;;;1.87;;
1024;SDS011;501;48.214;11.350;2023-04-25T04:31:08;1.73;;;1.63;;
1024;SDS011;501;48.214;11.350;2023-04-25T04:33:35;2.90;;;1.93;;
1024;SDS011;501;48.214;11.350;2023-04-25T04:36:01;6.30;;;2.00;;
1024;SDS011;501;48.214;11.350;2023-04-25T04:38:28;2.23;;;2.00;;
1024;SDS011;501;48.214;11.350;2023-04-25T04:40:54;2.40;;;1.60;;
1024;SDS011;501;48.214;11.350;2023-04-25T04:43:19;1.67;;;1.57;;
1024;SDS011;501;48.214;11.350;2023-04-25T04:45:45;2.40;;;2.10;;
1024;SDS011;501;48.214;11.350;2023-04-25T04:48:11;2.10;;;1.90;;
1024;SDS011;501;48.214;11.350;2023-04-25T04:50:38;3.03;;;1.90;;
1024;SDS011;501;48.214;11.350;2023-04-25T04:53:05;1.90;;;1.80;;
1024;SDS011;501;48.214;11.350;2023-04-25T04:55:30;2.40;;;1.97;;
1024;SDS011;501;48.214;11.350;2023-04-25T04:57:56;3.77;;;2.10;;
1024;SDS011;501;48.214;11.350;2023-04-25T05:00:22;2.07;;;1.70;;
1024;SDS011;501;48.214;11.350;2023-04-25T05:02:47;2.20;;;1.90;;
1024;SDS011;501;48.214;11.350;2023-04-25T05:05:13;2.27;;;2.07;;
1024;SDS011;501;48.214;11.350;2023-04-25T05:07:38;1.77;;;1.67;;
1024;SDS011;501;48.214;11.350;2023-04-25T05:10:04;2.77;;;1.60;;
1024;SDS011;501;48.214;11.350;2023-04-25T05:12:31;1.53;;;1.40;;
1024;SDS011;501;48.214;11.350;2023-04-25T05:14:56;2.43;;;1.80;;
1024;SDS011;501;48.214;11.350;2023-04-25T05:17:22;3.00;;;2.03;;
1024;SDS011;501;48.214;11.350;2023-04-25T05:19:47;3.50;;;1.70;;
1024;SDS011;501;48.214;11.350;2023-04-25T05:22:13;2.30;;;1.60;;
1024;SDS011;501;48.214;11.350;2023-04-25T05:24:39;1.97;;;1.87;;
1024;SDS011;501;48.214;11.350;2023-04-25T05:27:04;2.20;;;2.00;;
1024;SDS011;501;48.214;11.350;2023-04-25T05:29:30;2.77;;;2.00;;
1024;SDS011;501;48.214;11.350;2023-04-25T05:31:56;2.20;;;2.00;;
1024;SDS011;501;48.214;11.350;2023-04-25T05:34:21;3.17;;;1.90;;
1024;SDS011;501;48.214;11.350;2023-04-25T05:36:47;4.50;;;2.30;;
1024;SDS011;501;48.214;11.350;2023-04-25T05:39:14;3.40;;;2.40;;
1024;SDS011;501;48.214;11.350;2023-04-25T05:41:43;3.53;;;2.30;;
1024;SDS011;501;48.214;11.350;2023-04-25T05:44:09;4.20;;;2.50;;
1024;SDS011;501;48.214;11.350;2023-04-25T05:46:35;3.23;;;2.77;;
1024;SDS011;501;48.214;11.350;2023-04-25T05:49:00;3.10;;;2.80;;
1024;SDS011;501;48.214;11.350;2023-04-25T05:51:26;4.77;;;3.10;;
1024;SDS011;501;48.214;11.350;2023-04-25T05:53:52;4.73;;;3.20;;
1024;SDS011;501;48.214;11.350;2023-04-25T05:56:18;3.63;;;2.90;;
1024;SDS011;501;48.214;11.350;2023-04-25T05:58:43;3.53;;;2.80;;
1024;SDS011;501;48.214;11.350;2023-04-25T06:01:09;3.53;;;3.13;;
1024;SDS011;501;48.214;11.350;2023-04-25T06:03:37;5.90;;;2.77;;
1024;SDS011;501;48.214;11.350;2023-04-25T06:06:03;3.70;;;3.40;;
1024;SDS011;501;48.214;11.350;2023-04-25T06:08:29;3.73;;;3.30;;
1024;SDS011;501;48.214;11.350;2023-04-25T06:10:54;3.83;;;3.33;;
1024;SDS011;501;48.214;11.350;2023-04-25T06:13:20;3.73;;;3.10;;
1024;SDS011;501;48.214;11.350;2023-04-25T06:15:46;3.83;;;3.03;;
1024;SDS011;501;48.214;11.350;2023-04-25T06:18:11;3.13;;;2.83;;
1024;SDS011;501;48.214;11.350;2023-04-25T06:20:37;3.37;;;3.07;;
1024;SDS011;501;48.214;11.350;2023-04-25T06:23:02;3.27;;;2.90;;
1024;SDS011;501;48.214;11.350;2023-04-25T06:25:28;4.23;;;2.33;;
1024;SDS011;501;48.214;11.350;2023-04-25T06:27:54;3.73;;;2.47;;
1024;SDS011;501;48.214;11.350;2023-04-25T06:30:19;3.80;;;2.60;;
1024;SDS011;501;48.214;11.350;2023-04-25T06:32:48;3.57;;;2.60;;
1024;SDS011;501;48.214;11.350;2023-04-25T06:35:14;3.70;;;2.63;;
1024;SDS011;501;48.214;11.350;2023-04-25T06:37:40;3.20;;;2.37;;
1024;SDS011;501;48.214;11.350;2023-04-25T06:40:05;3.33;;;2.80;;
1024;SDS011;501;48.214;11.350;2023-04-25T06:42:31;3.50;;;3.10;;
1024;SDS011;501;48.214;11.350;2023-04-25T06:44:57;5.10;;;2.83;;
1024;SDS011;501;48.214;11.350;2023-04-25T06:47:22;3.03;;;2.50;;
1024;SDS011;501;48.214;11.350;2023-04-25T06:49:48;5.43;;;3.03;;
1024;SDS011;501;48.214;11.350;2023-04-25T06:52:14;3.63;;;3.20;;
1024;SDS011;501;48.214;11.350;2023-04-25T06:54:40;3.23;;;2.67;;
1024;SDS011;501;48.214;11.350;2023-04-25T06:57:05;3.07;;;2.87;;
1024;SDS011;501;48.214;11.350;2023-04-25T06:59:31;5.90;;;2.97;;
1024;SDS011;501;48.214;11.350;2023-04-25T07:01:57;2.60;;;2.40;;
1024;SDS011;501;48.214;11.350;2023-04-25T07:04:23;4.60;;;2.27;;
1024;SDS011;501;48.214;11.350;2023-04-25T07:06:48;3.53;;;2.37;;
1024;SDS011;501;48.214;11.350;2023-04-25T07:09:14;5.50;;;2.63;;
1024;SDS011;501;48.214;11.350;2023-04-25T07:11:40;2.13;;;1.93;;
1024;SDS011;501;48.214;11.350;2023-04-25T07:14:06;1.93;;;1.77;;
1024;SDS011;501;48.214;11.350;2023-04-25T07:16:31;2.40;;;2.00;;
1024;SDS011;501;48.214;11.350;2023-04-25T07:18:57;3.00;;;2.40;;
1024;SDS011;501;48.214;11.350;2023-04-25T07:21:22;2.10;;;1.90;;
1024;SDS011;501;48.214;11.350;2023-04-25T07:23:48;2.17;;;1.87;;
1024;SDS011;501;48.214;11.350;2023-04-25T07:26:14;3.17;;;2.87;;
1024;SDS011;501;48.214;11.350;2023-04-25T07:28:39;3.17;;;2.47;;
1024;SDS011;501;48.214;11.350;2023-04-25T07:31:05;2.97;;;2.13;;
1024;SDS011;501;48.214;11.350;2023-04-25T07:33:31;2.67;;;2.33;;
1024;SDS011;501;48.214;11.350;2023-04-25T07:35:57;2.07;;;1.97;;
1024;SDS011;501;48.214;11.350;2023-04-25T07:38:23;3.50;;;2.60;;
1024;SDS011;501;48.214;11.350;2023-04-25T07:40:48;3.70;;;2.63;;
1024;SDS011;501;48.214;11.350;2023-04-25T07:43:14;5.93;;;3.13;;
1024;SDS011;501;48.214;11.350;2023-04-25T07:45:45;3.30;;;2.77;;
1024;SDS011;501;48.214;11.350;2023-04-25T07:48:11;2.50;;;2.30;;
1024;SDS011;501;48.214;11.350;2023-04-25T07:50:41;4.30;;;2.97;;
1024;SDS011;501;48.214;11.350;2023-04-25T07:53:07;3.13;;;2.80;;
1024;SDS011;501;48.214;11.350;2023-04-25T07:55:32;2.90;;;2.47;;
1024;SDS011;501;48.214;11.350;2023-04-25T07:57:58;5.30;;;2.43;;
1024;SDS011;501;48.214;11.350;2023-04-25T08:00:23;2.60;;;2.40;;
1024;SDS011;501;48.214;11.350;2023-04-25T08:02:49;2.40;;;1.73;;
1024;SDS011;501;48.214;11.350;2023-04-25T08:05:16;4.10;;;2.40;;
1024;SDS011;501;48.214;11.350;2023-04-25T08:07:41;3.87;;;1.70;;
1024;SDS011;501;48.214;11.350;2023-04-25T08:10:08;3.57;;;2.10;;
1024;SDS011;501;48.214;11.350;2023-04-25T08:12:34;2.20;;;1.90;;
1024;SDS011;501;48.214;11.350;2023-04-25T08:15:00;2.33;;;2.00;;
1024;SDS011;501;48.214;11.350;2023-04-25T08:17:25;4.50;;;2.47;;
1024;SDS011;501;48.214;11.350;2023-04-25T08:19:51;4.47;;;2.40;;
1024;SDS011;501;48.214;11.350;2023-04-25T08:22:16;2.93;;;2.50;;
1024;SDS011;501;48.214;11.350;2023-04-25T08:24:42;2.07;;;1.77;;
1024;SDS011;501;48.214;11.350;2023-04-25T08:27:08;1.53;;;1.43;;
1024;SDS011;501;48.214;11.350;2023-04-25T08:29:34;1.63;;;1.53;;
1024;SDS011;501;48.214;11.350;2023-04-25T08:31:59;1.73;;;1.63;;
1024;SDS011;501;48.214;11.350;2023-04-25T08:34:26;2.67;;;2.47;;
1024;SDS011;501;48.214;11.350;2023-04-25T08:36:51;2.07;;;1.80;;
1024;SDS011;501;48.214;11.350;2023-04-25T08:39:17;2.77;;;1.80;;
1024;SDS011;501;48.214;11.350;2023-04-25T08:41:43;3.50;;;1.87;;
1024;SDS011;501;48.214;11.350;2023-04-25T08:44:10;2.90;;;2.03;;
1024;SDS011;501;48.214;11.350;2023-04-25T08:46:39;2.80;;;1.80;;
1024;SDS011;501;48.214;11.350;2023-04-25T08:49:06;3.67;;;2.00;;
1024;SDS011;501;48.214;11.350;2023-04-25T08:51:32;2.60;;;2.03;;
1024;SDS011;501;48.214;11.350;2023-04-25T08:54:07;2.40;;;1.50;;
1024;SDS011;501;48.214;11.350;2023-04-25T08:56:35;1.77;;;1.67;;
1024;SDS011;501;48.214;11.350;2023-04-25T08:59:01;2.20;;;2.00;;
1024;SDS011;501;48.214;11.350;2023-04-25T09:01:27;1.97;;;1.60;;
1024;SDS011;501;48.214;11.350;2023-04-25T09:03:53;2.87;;;1.67;;
1024;SDS011;501;48.214;11.350;2023-04-25T09:06:19;2.93;;;1.70;;
1024;SDS011;501;48.214;11.350;2023-04-25T09:08:44;3.90;;;1.60;;
1024;SDS011;501;48.214;11.350;2023-04-25T09:11:11;1.77;;;1.33;;
1024;SDS011;501;48.214;11.350;2023-04-25T09:13:37;4.47;;;1.80;;
1024;SDS011;501;48.214;11.350;2023-04-25T09:16:03;1.47;;;1.37;;
1024;SDS011;501;48.214;11.350;2023-04-25T09:18:33;5.30;;;1.80;;
1024;SDS011;501;48.214;11.350;2023-04-25T09:21:09;1.47;;;1.37;;
1024;SDS011;501;48.214;11.350;2023-04-25T09:23:54;1.80;;;1.70;;
1024;SDS011;501;48.214;11.350;2023-04-25T09:26:20;2.83;;;1.90;;
1024;SDS011;501;48.214;11.350;2023-04-25T09:28:46;4.93;;;1.80;;
1024;SDS011;501;48.214;11.350;2023-04-25T09:31:21;2.00;;;1.30;;
1024;SDS011;501;48.214;11.350;2023-04-25T09:33:58;2.43;;;1.70;;
1024;SDS011;501;48.214;11.350;2023-04-25T09:36:26;2.00;;;1.80;;
1024;SDS011;501;48.214;11.350;2023-04-25T09:38:52;2.30;;;1.73;;
1024;SDS011;501;48.214;11.350;2023-04-25T09:41:22;2.10;;;1.60;;
1024;SDS011;501;48.214;11.350;2023-04-25T09:43:48;3.83;;;1.80;;
1024;SDS011;501;48.214;11.350;2023-04-25T09:46:15;2.10;;;1.90;;
1024;SDS011;501;48.214;11.350;2023-04-25T09:48:47;5.03;;;2.33;;
1024;SDS011;501;48.214;11.350;2023-04-25T09:51:14;1.40;;;1.30;;
1024;SDS011;501;48.214;11.350;2023-04-25T09:53:41;1.23;;;1.20;;
1024;SDS011;501;48.214;11.350;2023-04-25T09:56:10;2.03;;;1.57;;
1024;SDS011;501;48.214;11.350;2023-04-25T09:58:37;2.57;;;1.43;;
1024;SDS011;501;48.214;11.350;2023-04-25T10:01:05;1.50;;;1.40;;
1024;SDS011;501;48.214;11.350;2023-04-25T10:03:33;4.40;;;1.80;;
1024;SDS011;501;48.214;11.350;2023-04-25T10:06:01;2.70;;;1.30;;
1024;SDS011;501;48.214;11.350;2023-04-25T10:08:33;2.37;;;1.40;;
1024;SDS011;501;48.214;11.350;2023-04-25T10:11:08;3.03;;;1.67;;
1024;SDS011;501;48.214;11.350;2023-04-25T10:13:34;1.70;;;1.53;;
1024;SDS011;501;48.214;11.350;2023-04-25T10:16:02;2.53;;;1.83;;
1024;SDS011;501;48.214;11.350;2023-04-25T10:18:29;3.10;;;1.60;;
1024;SDS011;501;48.214;11.350;2023-04-25T10:21:00;2.23;;;1.47;;
1024;SDS011;501;48.214;11.350;2023-04-25T10:23:27;2.07;;;1.43;;
1024;SDS011;501;48.214;11.350;2023-04-25T10:25:55;3.20;;;1.70;;
1024;SDS011;501;48.214;11.350;2023-04-25T10:28:21;2.03;;;1.37;;
1024;SDS011;501;48.214;11.350;2023-04-25T10:31:03;1.67;;;1.57;;
1024;SDS011;501;48.214;11.350;2023-04-25T10:33:34;1.97;;;1.70;;
1024;SDS011;501;48.214;11.350;2023-04-25T10:36:08;1.83;;;1.73;;
1024;SDS011;501;48.214;11.350;2023-04-25T10:38:42;2.67;;;1.60;;
1024;SDS011;501;48.214;11.350;2023-04-25T10:41:09;2.27;;;1.53;;
1024;SDS011;501;48.214;11.350;2023-04-25T10:43:40;1.87;;;1.60;;
1024;SDS011;501;48.214;11.350;2023-04-25T10:49:01;3.40;;;1.80;;
1024;SDS011;501;48.214;11.350;2023-04-25T10:51:31;2.37;;;1.70;;
1024;SDS011;501;48.214;11.350;2023-04-25T10:53:59;1.70;;;1.60;;
1024;SDS011;501;48.214;11.350;2023-04-25T10:56:26;1.93;;;1.50;;
1024;SDS011;501;48.214;11.350;2023-04-25T10:59:03;1.13;;;1.03;;
1024;SDS011;501;48.214;11.350;2023-04-25T11:01:38;1.50;;;1.27;;
1024;SDS011;501;48.214;11.350;2023-04-25T11:04:24;3.37;;;1.07;;
1024;SDS011;501;48.214;11.350;2023-04-25T11:09:35;2.17;;;1.33;;
1024;SDS011;501;48.214;11.350;2023-04-25T11:12:03;0.73;;;0.73;;
1024;SDS011;501;48.214;11.350;2023-04-25T11:14:30;1.77;;;1.33;;
1024;SDS011;501;48.214;11.350;2023-04-25T11:16:56;1.97;;;1.40;;
1024;SDS011;501;48.214;11.350;2023-04-25T11:19:23;4.47;;;1.83;;
1024;SDS011;501;48.214;11.350;2023-04-25T11:21:50;2.60;;;1.77;;
1024;SDS011;501;48.214;11.350;2023-04-25T11:24:16;2.20;;;1.90;;
1024;SDS011;501;48.214;11.350;2023-04-25T11:26:43;3.40;;;1.60;;
1024;SDS011;501;48.214;11.350;2023-04-25T11:29:12;2.33;;;1.50;;
1024;SDS011;501;48.214;11.350;2023-04-25T11:31:38;2.83;;;1.90;;
1024;SDS011;501;48.214;11.350;2023-04-25T11:34:03;5.83;;;2.00;;
1024;SDS011;501;48.214;11.350;2023-04-25T11:36:41;3.13;;;1.90;;
1024;SDS011;501;48.214;11.350;2023-04-25T11:39:20;4.60;;;2.30;;
1024;SDS011;501;48.214;11.350;2023-04-25T11:41:46;4.57;;;2.17;;
1024;SDS011;501;48.214;11.350;2023-04-25T11:50:25;1.80;;;1.37;;
1024;SDS011;501;48.214;11.350;2023-04-25T11:52:55;1.20;;;1.17;;
1024;SDS011;501;48.214;11.350;2023-04-25T11:55:26;1.60;;;1.50;;
1024;SDS011;501;48.214;11.350;2023-04-25T11:57:55;1.30;;;1.20;;
1024;SDS011;501;48.214;11.350;2023-04-25T12:00:25;1.63;;;1.40;;
1024;SDS011;501;48.214;11.350;2023-04-25T12:02:52;2.23;;;1.53;;
1024;SDS011;501;48.214;11.350;2023-04-25T12:05:19;1.77;;;1.50;;
1024;SDS011;501;48.214;11.350;2023-04-25T12:07:48;1.43;;;1.27;;
1024;SDS011;501;48.214;11.350;2023-04-25T12:10:15;1.93;;;1.77;;
1024;SDS011;501;48.214;11.350;2023-04-25T12:12:43;2.70;;;1.50;;
1024;SDS011;501;48.214;11.350;2023-04-25T12:15:24;1.63;;;1.53;;
1024;SDS011;501;48.214;11.350;2023-04-25T12:21:03;1.47;;;1.37;;
1024;SDS011;501;48.214;11.350;2023-04-25T12:23:29;0.93;;;0.93;;
1024;SDS011;501;48.214;11.350;2023-04-25T12:25:55;1.70;;;1.30;;
1024;SDS011;501;48.214;11.350;2023-04-25T12:28:23;1.30;;;1.20;;
1024;SDS011;501;48.214;11.350;2023-04-25T12:30:59;2.80;;;1.40;;
1024;SDS011;501;48.214;11.350;2023-04-25T12:33:28;1.93;;;1.30;;
1024;SDS011;501;48.214;11.350;2023-04-25T12:35:55;1.87;;;1.40;;
1024;SDS011;501;48.214;11.350;2023-04-25T12:38:21;1.63;;;1.50;;
1024;SDS011;501;48.214;11.350;2023-04-25T12:40:55;2.90;;;1.70;;
1024;SDS011;501;48.214;11.350;2023-04-25T12:43:22;2.50;;;1.07;;
1024;SDS011;501;48.214;11.350;2023-04-25T12:45:48;1.57;;;1.40;;
1024;SDS011;501;48.214;11.350;2023-04-25T12:48:18;2.90;;;1.27;;
1024;SDS011;501;48.214;11.350;2023-04-25T12:50:44;1.47;;;0.97;;
1024;SDS011;501;48.214;11.350;2023-04-25T12:53:12;1.00;;;0.80;;
1024;SDS011;501;48.214;11.350;2023-04-25T12:55:38;0.97;;;0.97;;
1024;SDS011;501;48.214;11.350;2023-04-25T12:58:04;1.50;;;1.03;;
1024;SDS011;501;48.214;11.350;2023-04-25T13:00:29;2.00;;;1.10;;
1024;SDS011;501;48.214;11.350;2023-04-25T13:02:55;1.83;;;1.03;;
1024;SDS011;501;48.214;11.350;2023-04-25T13:05:21;1.03;;;0.80;;
1024;SDS011;501;48.214;11.350;2023-04-25T13:07:47;1.13;;;0.80;;
1024;SDS011;501;48.214;11.350;2023-04-25T13:10:12;1.63;;;1.00;;
1024;SDS011;501;48.214;11.350;2023-04-25T13:12:38;0.73;;;0.73;;
1024;SDS011;501;48.214;11.350;2023-04-25T13:15:04;1.70;;;1.33;;
1024;SDS011;501;48.214;11.350;2023-04-25T13:17:30;2.27;;;1.27;;
1024;SDS011;501;48.214;11.350;2023-04-25T13:19:55;2.20;;;1.40;;
1024;SDS011;501;48.214;11.350;2023-04-25T13:22:21;2.13;;;1.47;;
1024;SDS011;501;48.214;11.350;2023-04-25T13:24:47;1.20;;;1.10;;
1024;SDS011;501;48.214;11.350;2023-04-25T13:27:12;1.90;;;1.80;;
1024;SDS011;501;48.214;11.350;2023-04-25T13:29:38;2.50;;;1.40;;
1024;SDS011;501;48.214;11.350;2023-04-25T13:32:05;1.43;;;1.33;;
1024;SDS011;501;48.214;11.350;2023-04-25T13:34:31;2.57;;;2.10;;
1024;SDS011;501;48.214;11.350;2023-04-25T13:36:57;1.63;;;1.53;;
1024;SDS011;501;48.214;11.350;2023-04-25T13:39:22;1.60;;;1.50;;
1024;SDS011;501;48.214;11.350;2023-04-25T13:41:48;2.10;;;1.90;;
1024;SDS011;501;48.214;11.350;2023-04-25T13:44:14;2.80;;;1.90;;
1024;SDS011;501;48.214;11.350;2023-04-25T13:46:39;1.90;;;1.80;;
1024;SDS011;501;48.214;11.350;2023-04-25T13:49:05;1.97;;;1.67;;
1024;SDS011;501;48.214;11.350;2023-04-25T13:51:30;1.40;;;1.30;;
1024;SDS011;501;48.214;11.350;2023-04-25T13:53:56;2.00;;;1.77;;
1024;SDS011;501;48.214;11.350;2023-04-25T13:56:22;1.23;;;1.10;;
1024;SDS011;501;48.214;11.350;2023-04-25T13:58:49;1.23;;;1.13;;
1024;SDS011;501;48.214;11.350;2023-04-25T14:01:16;1.17;;;1.00;;
1024;SDS011;501;48.214;11.350;2023-04-25T14:03:42;1.43;;;1.30;;
1024;SDS011;501;48.214;11.350;2023-04-25T14:06:08;1.20;;;0.90;;
1024;SDS011;501;48.214;11.350;2023-04-25T14:08:34;1.60;;;1.23;;
1024;SDS011;501;48.214;11.350;2023-04-25T14:10:59;0.90;;;0.90;;
1024;SDS011;501;48.214;11.350;2023-04-25T14:13:25;1.23;;;1.03;;
1024;SDS011;501;48.214;11.350;2023-04-25T14:15:51;1.00;;;0.60;;
1024;SDS011;501;48.214;11.350;2023-04-25T14:18:17;0.67;;;0.67;;
1024;SDS011;501;48.214;11.350;2023-04-25T14:20:44;1.00;;;0.90;;
1024;SDS011;501;48.214;11.350;2023-04-25T14:23:10;0.80;;;0.80;;
1024;SDS011;501;48.214;11.350;2023-04-25T14:25:35;0.60;;;0.60;;
1024;SDS011;501;48.214;11.350;2023-04-25T14:28:02;0.70;;;0.67;;
1024;SDS011;501;48.214;11.350;2023-04-25T14:30:27;1.40;;;1.00;;
1024;SDS011;501;48.214;11.350;2023-04-25T14:32:53;0.70;;;0.70;;
1024;SDS011;501;48.214;11.350;2023-04-25T14:35:19;0.70;;;0.70;;
1024;SDS011;501;48.214;11.350;2023-04-25T14:37:44;1.00;;;1.00;;
1024;SDS011;501;48.214;11.350;2023-04-25T14:40:11;1.10;;;1.00;;
1024;SDS011;501;48.214;11.350;2023-04-25T14:42:38;0.70;;;0.70;;
1024;SDS011;501;48.214;11.350;2023-04-25T14:45:05;1.43;;;1.33;;
1024;SDS011;501;48.214;11.350;2023-04-25T14:47:32;1.10;;;1.00;;
1024;SDS011;501;48.214;11.350;2023-04-25T14:49:58;1.20;;;1.10;;
1024;SDS011;501;48.214;11.350;2023-04-25T14:52:23;1.03;;;0.97;;
1024;SDS011;501;48.214;11.350;2023-04-25T14:54:50;4.97;;;1.40;;
1024;SDS011;501;48.214;11.350;2023-04-25T14:57:16;1.50;;;1.40;;
1024;SDS011;501;48.214;11.350;2023-04-25T14:59:42;1.33;;;1.23;;
1024;SDS011;501;48.214;11.350;2023-04-25T15:02:07;1.83;;;1.27;;
1024;SDS011;501;48.214;11.350;2023-04-25T15:04:33;1.60;;;1.50;;
1024;SDS011;501;48.214;11.350;2023-04-25T15:06:59;2.80;;;1.50;;
1024;SDS011;501;48.214;11.350;2023-04-25T15:09:24;1.70;;;1.43;;
1024;SDS011;501;48.214;11.350;2023-04-25T15:11:50;1.70;;;1.60;;
1024;SDS011;501;48.214;11.350;2023-04-25T15:14:16;1.50;;;1.40;;
1024;SDS011;501;48.214;11.350;2023-04-25T15:16:42;1.93;;;1.63;;
1024;SDS011;501;48.214;11.350;2023-04-25T15:19:08;1.77;;;1.20;;
1024;SDS011;501;48.214;11.350;2023-04-25T15:21:34;1.53;;;1.27;;
1024;SDS011;501;48.214;11.350;2023-04-25T15:24:00;0.80;;;0.80;;
1024;SDS011;501;48.214;11.350;2023-04-25T15:26:26;1.20;;;1.10;;